sensor_id;sensor_type;location;lat;lon;timestamp;pressure;altitude;pressure_sealevel;temperature;humidity
39773;BME280;25451;51.960;6.250;2023-02-14T00:00:16;103358.66;;;5.18;72.81
39773;BME280;25451;51.960;6.250;2023-02-14T00:02:42;103358.09;;;5.14;73.16
39773;BME280;25451;51.960;6.250;2023-02-14T00:05:07;103361.00;;;5.13;73.24
39773;BME280;25451;51.960;6.250;2023-02-14T00:07:33;103347.31;;;5.03;72.93
39773;BME280;25451;51.960;6.250;2023-02-14T00:09:58;103356.84;;;5.09;72.87
39773;BME280;25451;51.960;6.250;2023-02-14T00:12:23;103350.66;;;5.07;73.08
39773;BME280;25451;51.960;6.250;2023-02-14T00:14:48;103356.25;;;5.05;72.93
39773;BME280;25451;51.960;6.250;2023-02-14T00:17:32;103347.47;;;5.01;72.92
39773;BME280;25451;51.960;6.250;2023-02-14T00:19:57;103335.41;;;4.94;73.02
39773;BME280;25451;51.960;6.250;2023-02-14T00:22:23;103341.28;;;4.99;73.22
39773;BME280;25451;51.960;6.250;2023-02-14T00:24:48;103343.72;;;4.93;73.33
39773;BME280;25451;51.960;6.250;2023-02-14T00:27:13;103350.78;;;4.95;72.77
39773;BME280;25451;51.960;6.250;2023-02-14T00:29:39;103352.81;;;4.93;72.78
39773;BME280;25451;51.960;6.250;2023-02-14T00:32:04;103348.38;;;4.92;73.12
39773;BME280;25451;51.960;6.250;2023-02-14T00:34:29;103339.28;;;4.92;73.10
39773;BME280;25451;51.960;6.250;2023-02-14T00:36:57;103336.97;;;4.87;72.83
39773;BME280;25451;51.960;6.250;2023-02-14T00:39:23;103329.63;;;4.88;72.96
39773;BME280;25451;51.960;6.250;2023-02-14T00:41:48;103338.84;;;4.87;73.00
39773;BME280;25451;51.960;6.250;2023-02-14T00:44:13;103331.22;;;4.81;73.05
39773;BME280;25451;51.960;6.250;2023-02-14T00:46:39;103335.53;;;4.83;73.14
39773;BME280;25451;51.960;6.250;2023-02-14T00:49:04;103330.38;;;4.80;73.07
39773;BME280;25451;51.960;6.250;2023-02-14T00:51:30;103330.50;;;4.79;73.21
39773;BME280;25451;51.960;6.250;2023-02-14T00:53:55;103335.97;;;4.79;73.16
39773;BME280;25451;51.960;6.250;2023-02-14T00:56:21;103328.22;;;4.74;72.77
39773;BME280;25451;51.960;6.250;2023-02-14T00:58:47;103323.19;;;4.70;73.03
39773;BME280;25451;51.960;6.250;2023-02-14T01:01:13;103325.63;;;4.73;73.18
39773;BME280;25451;51.960;6.250;2023-02-14T01:03:39;103321.44;;;4.69;73.08
39773;BME280;25451;51.960;6.250;2023-02-14T01:06:05;103332.53;;;4.67;73.04
39773;BME280;25451;51.960;6.250;2023-02-14T01:08:30;103333.53;;;4.66;72.85
39773;BME280;25451;51.960;6.250;2023-02-14T01:10:55;103330.94;;;4.65;73.33
39773;BME280;25451;51.960;6.250;2023-02-14T01:13:21;103331.25;;;4.62;72.99
39773;BME280;25451;51.960;6.250;2023-02-14T01:15:49;103338.59;;;4.61;73.00
39773;BME280;25451;51.960;6.250;2023-02-14T01:18:17;103331.53;;;4.59;72.98
39773;BME280;25451;51.960;6.250;2023-02-14T01:20:43;103328.94;;;4.57;72.86
39773;BME280;25451;51.960;6.250;2023-02-14T01:23:08;103333.69;;;4.55;73.19
39773;BME280;25451;51.960;6.250;2023-02-14T01:25:35;103337.44;;;4.54;73.06
39773;BME280;25451;51.960;6.250;2023-02-14T01:28:01;103334.13;;;4.51;73.33
39773;BME280;25451;51.960;6.250;2023-02-14T01:30:26;103337.88;;;4.50;72.84
39773;BME280;25451;51.960;6.250;2023-02-14T01:32:51;103326.34;;;4.46;72.93
39773;BME280;25451;51.960;6.250;2023-02-14T01:35:17;103334.44;;;4.48;73.31
39773;BME280;25451;51.960;6.250;2023-02-14T01:37:42;103328.38;;;4.44;73.20
39773;BME280;25451;51.960;6.250;2023-02-14T01:40:09;103340.31;;;4.43;73.03
39773;BME280;25451;51.960;6.250;2023-02-14T01:42:35;103331.41;;;4.41;73.04
39773;BME280;25451;51.960;6.250;2023-02-14T01:47:30;103330.69;;;4.39;73.35
39773;BME280;25451;51.960;6.250;2023-02-14T01:50:05;103325.47;;;4.36;73.33
39773;BME280;25451;51.960;6.250;2023-02-14T01:52:41;103320.31;;;4.33;73.06
39773;BME280;25451;51.960;6.250;2023-02-14T01:55:12;103321.31;;;4.32;73.52
39773;BME280;25451;51.960;6.250;2023-02-14T01:57:43;103331.53;;;4.30;72.93
39773;BME280;25451;51.960;6.250;2023-02-14T02:00:12;103334.97;;;4.32;73.11
39773;BME280;25451;51.960;6.250;2023-02-14T02:02:57;103332.25;;;4.32;73.26
39773;BME280;25451;51.960;6.250;2023-02-14T02:05:23;103333.28;;;4.31;73.11
39773;BME280;25451;51.960;6.250;2023-02-14T02:07:54;103334.13;;;4.32;72.93
39773;BME280;25451;51.960;6.250;2023-02-14T02:10:21;103322.59;;;4.28;73.30
39773;BME280;25451;51.960;6.250;2023-02-14T02:12:48;103329.50;;;4.32;73.18
39773;BME280;25451;51.960;6.250;2023-02-14T02:15:14;103324.34;;;4.29;73.32
39773;BME280;25451;51.960;6.250;2023-02-14T02:18:04;103328.66;;;4.32;73.37
39773;BME280;25451;51.960;6.250;2023-02-14T02:34:54;103305.63;;;4.25;72.74
39773;BME280;25451;51.960;6.250;2023-02-14T02:37:58;103301.31;;;4.22;72.81
39773;BME280;25451;51.960;6.250;2023-02-14T02:45:58;103289.09;;;4.16;73.07
39773;BME280;25451;51.960;6.250;2023-02-14T02:48:58;103289.09;;;4.16;73.20
39773;BME280;25451;51.960;6.250;2023-02-14T02:51:46;103286.91;;;4.10;73.10
39773;BME280;25451;51.960;6.250;2023-02-14T02:54:41;103291.50;;;4.10;73.03
39773;BME280;25451;51.960;6.250;2023-02-14T02:57:14;103298.72;;;4.11;73.15
39773;BME280;25451;51.960;6.250;2023-02-14T02:59:44;103298.84;;;4.09;73.19
39773;BME280;25451;51.960;6.250;2023-02-14T03:02:17;103295.28;;;4.09;73.15
39773;BME280;25451;51.960;6.250;2023-02-14T03:04:48;103301.72;;;4.08;73.16
39773;BME280;25451;51.960;6.250;2023-02-14T03:10:19;103294.66;;;4.05;73.22
39773;BME280;25451;51.960;6.250;2023-02-14T03:12:59;103294.09;;;4.02;73.40
39773;BME280;25451;51.960;6.250;2023-02-14T03:15:40;103299.41;;;4.03;73.13
39773;BME280;25451;51.960;6.250;2023-02-14T03:24:15;103300.84;;;3.98;73.28
39773;BME280;25451;51.960;6.250;2023-02-14T03:27:27;103294.66;;;3.96;73.21
39773;BME280;25451;51.960;6.250;2023-02-14T03:30:02;103300.13;;;3.96;73.18
39773;BME280;25451;51.960;6.250;2023-02-14T03:32:45;103286.88;;;3.91;73.36
39773;BME280;25451;51.960;6.250;2023-02-14T03:35:21;103300.69;;;3.90;73.29
39773;BME280;25451;51.960;6.250;2023-02-14T03:37:55;103289.75;;;3.90;73.34
39773;BME280;25451;51.960;6.250;2023-02-14T03:40:31;103294.50;;;3.88;73.44
39773;BME280;25451;51.960;6.250;2023-02-14T03:43:06;103290.06;;;3.87;73.27
39773;BME280;25451;51.960;6.250;2023-02-14T03:45:39;103290.19;;;3.85;73.61
39773;BME280;25451;51.960;6.250;2023-02-14T03:48:09;103290.34;;;3.84;73.40
39773;BME280;25451;51.960;6.250;2023-02-14T03:50:37;103289.31;;;3.85;73.28
39773;BME280;25451;51.960;6.250;2023-02-14T03:53:06;103290.47;;;3.82;73.16
39773;BME280;25451;51.960;6.250;2023-02-14T03:55:39;103293.47;;;3.79;73.42
39773;BME280;25451;51.960;6.250;2023-02-14T03:58:39;103294.03;;;3.83;73.27
39773;BME280;25451;51.960;6.250;2023-02-14T04:01:17;103292.50;;;3.80;73.14
39773;BME280;25451;51.960;6.250;2023-02-14T04:03:45;103282.25;;;3.73;73.42
39773;BME280;25451;51.960;6.250;2023-02-14T04:06:11;103293.47;;;3.79;73.59
39773;BME280;25451;51.960;6.250;2023-02-14T04:08:36;103294.50;;;3.78;73.36
39773;BME280;25451;51.960;6.250;2023-02-14T04:11:03;103295.34;;;3.79;73.33
39773;BME280;25451;51.960;6.250;2023-02-14T04:13:29;103297.34;;;3.77;73.58
39773;BME280;25451;51.960;6.250;2023-02-14T04:15:54;103301.81;;;3.78;73.29
39773;BME280;25451;51.960;6.250;2023-02-14T04:18:19;103300.06;;;3.77;73.42
39773;BME280;25451;51.960;6.250;2023-02-14T04:21:04;103297.63;;;3.74;73.37
39773;BME280;25451;51.960;6.250;2023-02-14T04:23:29;103290.59;;;3.71;73.29
39773;BME280;25451;51.960;6.250;2023-02-14T04:25:55;103289.59;;;3.72;73.31
39773;BME280;25451;51.960;6.250;2023-02-14T04:28:20;103288.16;;;3.68;73.37
39773;BME280;25451;51.960;6.250;2023-02-14T04:30:45;103294.19;;;3.72;73.05
39773;BME280;25451;51.960;6.250;2023-02-14T04:33:11;103289.59;;;3.72;73.53
39773;BME280;25451;51.960;6.250;2023-02-14T04:35:36;103297.91;;;3.71;73.35
39773;BME280;25451;51.960;6.250;2023-02-14T04:38:02;103295.16;;;3.71;73.46
39773;BME280;25451;51.960;6.250;2023-02-14T04:40:28;103294.44;;;3.69;73.42
39773;BME280;25451;51.960;6.250;2023-02-14T04:42:53;103290.00;;;3.68;73.31
39773;BME280;25451;51.960;6.250;2023-02-14T04:45:19;103290.88;;;3.68;73.40
39773;BME280;25451;51.960;6.250;2023-02-14T04:47:44;103291.72;;;3.69;73.63
39773;BME280;25451;51.960;6.250;2023-02-14T04:50:10;103282.53;;;3.70;73.46
39773;BME280;25451;51.960;6.250;2023-02-14T04:52:35;103288.00;;;3.70;73.60
39773;BME280;25451;51.960;6.250;2023-02-14T04:55:01;103282.53;;;3.70;73.32
39773;BME280;25451;51.960;6.250;2023-02-14T04:57:27;103280.78;;;3.69;73.19
39773;BME280;25451;51.960;6.250;2023-02-14T04:59:52;103270.88;;;3.68;73.54
39773;BME280;25451;51.960;6.250;2023-02-14T05:02:17;103283.53;;;3.69;73.37
39773;BME280;25451;51.960;6.250;2023-02-14T05:04:42;103271.88;;;3.67;73.56
39773;BME280;25451;51.960;6.250;2023-02-14T05:07:08;103274.50;;;3.68;73.27
39773;BME280;25451;51.960;6.250;2023-02-14T05:09:33;103271.88;;;3.67;73.31
39773;BME280;25451;51.960;6.250;2023-02-14T05:11:59;103272.91;;;3.66;73.35
39773;BME280;25451;51.960;6.250;2023-02-14T05:14:24;103264.97;;;3.63;73.52
39773;BME280;25451;51.960;6.250;2023-02-14T05:16:49;103271.16;;;3.65;73.84
39773;BME280;25451;51.960;6.250;2023-02-14T05:19:14;103260.53;;;3.62;73.52
39773;BME280;25451;51.960;6.250;2023-02-14T05:21:40;103259.50;;;3.63;73.47
39773;BME280;25451;51.960;6.250;2023-02-14T05:24:05;103247.84;;;3.61;73.62
39773;BME280;25451;51.960;6.250;2023-02-14T05:26:31;103253.31;;;3.61;73.41
39773;BME280;25451;51.960;6.250;2023-02-14T05:28:56;103255.78;;;3.64;73.42
39773;BME280;25451;51.960;6.250;2023-02-14T05:31:21;103256.91;;;3.61;73.37
39773;BME280;25451;51.960;6.250;2023-02-14T05:33:47;103246.88;;;3.62;73.48
39773;BME280;25451;51.960;6.250;2023-02-14T05:36:12;103242.53;;;3.59;73.55
39773;BME280;25451;51.960;6.250;2023-02-14T05:38:38;103247.03;;;3.60;73.53
39773;BME280;25451;51.960;6.250;2023-02-14T05:41:03;103245.13;;;3.61;73.52
39773;BME280;25451;51.960;6.250;2023-02-14T05:43:29;103248.88;;;3.60;73.46
39773;BME280;25451;51.960;6.250;2023-02-14T05:45:55;103243.97;;;3.54;73.32
39773;BME280;25451;51.960;6.250;2023-02-14T05:48:20;103258.19;;;3.57;73.24
39773;BME280;25451;51.960;6.250;2023-02-14T05:50:45;103248.56;;;3.53;73.46
39773;BME280;25451;51.960;6.250;2023-02-14T05:53:11;103256.34;;;3.58;73.42
39773;BME280;25451;51.960;6.250;2023-02-14T05:55:37;103259.06;;;3.58;73.16
39773;BME280;25451;51.960;6.250;2023-02-14T05:58:02;103250.31;;;3.54;73.38
39773;BME280;25451;51.960;6.250;2023-02-14T06:00:28;103258.19;;;3.57;73.46
39773;BME280;25451;51.960;6.250;2023-02-14T06:02:53;103262.78;;;3.57;73.71
39773;BME280;25451;51.960;6.250;2023-02-14T06:05:18;103256.34;;;3.58;73.48
39773;BME280;25451;51.960;6.250;2023-02-14T06:07:45;103254.91;;;3.54;73.75
39773;BME280;25451;51.960;6.250;2023-02-14T06:10:24;103261.09;;;3.56;73.39
39773;BME280;25451;51.960;6.250;2023-02-14T06:12:51;103254.91;;;3.54;73.46
39773;BME280;25451;51.960;6.250;2023-02-14T06:15:17;103260.50;;;3.52;73.31
39773;BME280;25451;51.960;6.250;2023-02-14T06:17:42;103261.50;;;3.51;73.51
39773;BME280;25451;51.960;6.250;2023-02-14T06:20:08;103250.41;;;3.43;73.42
39773;BME280;25451;51.960;6.250;2023-02-14T06:22:35;103254.44;;;3.49;73.30
39773;BME280;25451;51.960;6.250;2023-02-14T06:25:00;103262.63;;;3.49;73.30
39773;BME280;25451;51.960;6.250;2023-02-14T06:27:28;103255.72;;;3.45;73.72
39773;BME280;25451;51.960;6.250;2023-02-14T06:29:54;103260.03;;;3.47;73.80
39773;BME280;25451;51.960;6.250;2023-02-14T06:32:19;103258.34;;;3.46;73.36
39773;BME280;25451;51.960;6.250;2023-02-14T06:34:44;103264.63;;;3.47;73.37
39773;BME280;25451;51.960;6.250;2023-02-14T06:37:10;103265.66;;;3.46;73.59
39773;BME280;25451;51.960;6.250;2023-02-14T06:39:35;103269.38;;;3.45;73.44
39773;BME280;25451;51.960;6.250;2023-02-14T06:42:00;103258.03;;;3.40;73.81
39773;BME280;25451;51.960;6.250;2023-02-14T06:44:25;103271.38;;;3.43;73.42
39773;BME280;25451;51.960;6.250;2023-02-14T06:46:51;103268.06;;;3.39;73.40
39773;BME280;25451;51.960;6.250;2023-02-14T06:49:16;103277.72;;;3.43;73.48
39773;BME280;25451;51.960;6.250;2023-02-14T06:51:41;103288.78;;;3.42;73.58
39773;BME280;25451;51.960;6.250;2023-02-14T06:54:07;103279.44;;;3.44;73.49
39773;BME280;25451;51.960;6.250;2023-02-14T06:56:32;103271.38;;;3.43;73.32
39773;BME280;25451;51.960;6.250;2023-02-14T06:58:57;103275.84;;;3.44;73.28
39773;BME280;25451;51.960;6.250;2023-02-14T07:01:22;103284.03;;;3.44;73.25
39773;BME280;25451;51.960;6.250;2023-02-14T07:03:48;103276.97;;;3.41;73.25
39773;BME280;25451;51.960;6.250;2023-02-14T07:06:13;103283.03;;;3.45;73.47
39773;BME280;25451;51.960;6.250;2023-02-14T07:08:38;103282.44;;;3.41;73.43
39773;BME280;25451;51.960;6.250;2023-02-14T07:11:04;103287.91;;;3.41;73.43
39773;BME280;25451;51.960;6.250;2023-02-14T07:13:29;103292.34;;;3.42;73.60
39773;BME280;25451;51.960;6.250;2023-02-14T07:15:55;103294.09;;;3.43;73.51
39773;BME280;25451;51.960;6.250;2023-02-14T07:18:21;103298.56;;;3.44;73.33
39773;BME280;25451;51.960;6.250;2023-02-14T07:20:50;103296.81;;;3.43;73.47
39773;BME280;25451;51.960;6.250;2023-02-14T07:23:16;103295.94;;;3.43;73.65
39773;BME280;25451;51.960;6.250;2023-02-14T07:25:42;103301.16;;;3.46;73.42
39773;BME280;25451;51.960;6.250;2023-02-14T07:28:07;103301.16;;;3.46;73.25
39773;BME280;25451;51.960;6.250;2023-02-14T07:30:32;103291.50;;;3.42;73.55
39773;BME280;25451;51.960;6.250;2023-02-14T07:32:58;103304.75;;;3.46;73.31
39773;BME280;25451;51.960;6.250;2023-02-14T07:35:23;103305.47;;;3.48;73.36
39773;BME280;25451;51.960;6.250;2023-02-14T07:37:49;103297.13;;;3.50;73.23
39773;BME280;25451;51.960;6.250;2023-02-14T07:40:15;103302.44;;;3.51;73.41
39773;BME280;25451;51.960;6.250;2023-02-14T07:42:41;103298.84;;;3.51;73.15
39773;BME280;25451;51.960;6.250;2023-02-14T07:45:07;103304.78;;;3.56;72.99
39773;BME280;25451;51.960;6.250;2023-02-14T07:47:33;103305.50;;;3.58;73.05
39773;BME280;25451;51.960;6.250;2023-02-14T07:49:58;103300.63;;;3.61;72.99
39773;BME280;25451;51.960;6.250;2023-02-14T07:52:23;103296.59;;;3.65;72.85
39773;BME280;25451;51.960;6.250;2023-02-14T07:54:49;103296.59;;;3.65;72.88
39773;BME280;25451;51.960;6.250;2023-02-14T07:57:14;103295.31;;;3.69;73.07
39773;BME280;25451;51.960;6.250;2023-02-14T07:59:39;103309.88;;;3.79;72.76
39773;BME280;25451;51.960;6.250;2023-02-14T08:02:05;103301.53;;;3.81;72.76
39773;BME280;25451;51.960;6.250;2023-02-14T08:04:30;103307.44;;;3.86;72.55
39773;BME280;25451;51.960;6.250;2023-02-14T08:06:55;103314.81;;;3.95;72.68
39773;BME280;25451;51.960;6.250;2023-02-14T08:09:21;103309.63;;;4.01;72.66
39773;BME280;25451;51.960;6.250;2023-02-14T08:11:53;103308.94;;;4.09;72.69
39773;BME280;25451;51.960;6.250;2023-02-14T08:14:54;103306.19;;;4.18;72.61
39773;BME280;25451;51.960;6.250;2023-02-14T08:17:40;103294.69;;;4.25;72.33
39773;BME280;25451;51.960;6.250;2023-02-14T08:20:05;103287.19;;;4.36;72.14
39773;BME280;25451;51.960;6.250;2023-02-14T08:22:31;103290.78;;;4.46;72.32
39773;BME280;25451;51.960;6.250;2023-02-14T08:24:57;103288.91;;;4.56;72.20
39773;BME280;25451;51.960;6.250;2023-02-14T08:27:22;103281.44;;;4.68;71.98
39773;BME280;25451;51.960;6.250;2023-02-14T08:29:47;103289.47;;;4.79;71.95
39773;BME280;25451;51.960;6.250;2023-02-14T08:32:12;103274.03;;;4.87;72.03
39773;BME280;25451;51.960;6.250;2023-02-14T08:34:39;103280.78;;;5.02;71.87
39773;BME280;25451;51.960;6.250;2023-02-14T08:37:05;103277.56;;;5.17;71.89
39773;BME280;25451;51.960;6.250;2023-02-14T08:39:30;103284.41;;;5.30;72.19
39773;BME280;25451;51.960;6.250;2023-02-14T08:41:56;103283.91;;;5.44;71.90
39773;BME280;25451;51.960;6.250;2023-02-14T08:44:22;103281.28;;;5.52;72.02
39773;BME280;25451;51.960;6.250;2023-02-14T08:46:47;103281.03;;;5.73;72.12
39773;BME280;25451;51.960;6.250;2023-02-14T08:49:13;103292.53;;;5.86;72.08
39773;BME280;25451;51.960;6.250;2023-02-14T08:51:38;103292.72;;;6.02;72.11
39773;BME280;25451;51.960;6.250;2023-02-14T08:54:03;103289.72;;;6.13;72.23
39773;BME280;25451;51.960;6.250;2023-02-14T08:56:28;103297.13;;;6.30;71.63
39773;BME280;25451;51.960;6.250;2023-02-14T08:58:54;103294.69;;;6.45;72.48
39773;BME280;25451;51.960;6.250;2023-02-14T09:01:19;103297.41;;;6.62;72.48
39773;BME280;25451;51.960;6.250;2023-02-14T09:03:44;103292.91;;;6.79;72.05
39773;BME280;25451;51.960;6.250;2023-02-14T09:06:12;103295.59;;;6.97;72.38
39773;BME280;25451;51.960;6.250;2023-02-14T09:08:38;103295.72;;;7.13;72.09
39773;BME280;25451;51.960;6.250;2023-02-14T09:11:15;103290.31;;;7.29;72.54
39773;BME280;25451;51.960;6.250;2023-02-14T09:13:43;103283.72;;;7.47;72.15
39773;BME280;25451;51.960;6.250;2023-02-14T09:16:10;103292.91;;;7.64;72.58
39773;BME280;25451;51.960;6.250;2023-02-14T09:18:35;103285.94;;;7.78;72.80
39773;BME280;25451;51.960;6.250;2023-02-14T09:21:01;103292.00;;;7.97;72.92
39773;BME280;25451;51.960;6.250;2023-02-14T09:23:31;103286.53;;;8.13;72.41
39773;BME280;25451;51.960;6.250;2023-02-14T09:26:03;103285.41;;;8.32;72.73
39773;BME280;25451;51.960;6.250;2023-02-14T09:28:29;103276.78;;;8.43;73.02
39773;BME280;25451;51.960;6.250;2023-02-14T09:30:55;103275.59;;;8.62;73.31
39773;BME280;25451;51.960;6.250;2023-02-14T09:33:20;103283.84;;;8.78;73.44
39773;BME280;25451;51.960;6.250;2023-02-14T09:35:46;103281.94;;;8.94;73.48
39773;BME280;25451;51.960;6.250;2023-02-14T09:38:30;103280.38;;;9.16;73.51
39773;BME280;25451;51.960;6.250;2023-02-14T09:40:55;103276.91;;;9.30;73.83
39773;BME280;25451;51.960;6.250;2023-02-14T09:43:29;103274.75;;;9.48;74.02
39773;BME280;25451;51.960;6.250;2023-02-14T09:45:59;103275.03;;;9.61;74.17
39773;BME280;25451;51.960;6.250;2023-02-14T09:48:38;103267.75;;;9.76;74.37
39773;BME280;25451;51.960;6.250;2023-02-14T09:51:14;103266.31;;;9.88;74.29
39773;BME280;25451;51.960;6.250;2023-02-14T09:56:36;103273.06;;;10.17;74.37
39773;BME280;25451;51.960;6.250;2023-02-14T09:59:20;103267.41;;;10.33;74.29
39773;BME280;25451;51.960;6.250;2023-02-14T10:02:03;103273.00;;;10.47;74.34
39773;BME280;25451;51.960;6.250;2023-02-14T10:04:46;103267.53;;;10.62;74.45
39773;BME280;25451;51.960;6.250;2023-02-14T10:07:39;103264.31;;;10.73;74.44
39773;BME280;25451;51.960;6.250;2023-02-14T10:10:19;103279.72;;;10.90;74.57
39773;BME280;25451;51.960;6.250;2023-02-14T10:16:11;103269.59;;;11.20;74.53
39773;BME280;25451;51.960;6.250;2023-02-14T10:19:01;103262.81;;;11.37;74.31
39773;BME280;25451;51.960;6.250;2023-02-14T10:21:32;103264.03;;;11.49;74.36
39773;BME280;25451;51.960;6.250;2023-02-14T10:24:10;103261.25;;;11.63;74.57
39773;BME280;25451;51.960;6.250;2023-02-14T10:26:38;103260.16;;;11.73;74.64
39773;BME280;25451;51.960;6.250;2023-02-14T10:29:09;103262.97;;;11.79;74.31
39773;BME280;25451;51.960;6.250;2023-02-14T10:32:02;103262.09;;;11.93;74.35
39773;BME280;25451;51.960;6.250;2023-02-14T10:37:38;103268.78;;;12.20;74.75
39773;BME280;25451;51.960;6.250;2023-02-14T10:40:24;103269.34;;;12.30;74.50
39773;BME280;25451;51.960;6.250;2023-02-14T10:43:32;103269.41;;;12.36;74.30
39773;BME280;25451;51.960;6.250;2023-02-14T10:46:10;103261.19;;;12.43;74.56
39773;BME280;25451;51.960;6.250;2023-02-14T10:48:45;103259.34;;;12.50;74.17
39773;BME280;25451;51.960;6.250;2023-02-14T10:51:20;103267.09;;;12.61;74.08
39773;BME280;25451;51.960;6.250;2023-02-14T10:54:19;103258.25;;;12.72;74.23
39773;BME280;25451;51.960;6.250;2023-02-14T10:56:50;103260.28;;;12.85;74.42
39773;BME280;25451;51.960;6.250;2023-02-14T10:59:23;103266.53;;;12.93;74.40
39773;BME280;25451;51.960;6.250;2023-02-14T11:01:51;103270.22;;;13.00;74.24
39773;BME280;25451;51.960;6.250;2023-02-14T11:04:19;103259.00;;;13.08;74.23
39773;BME280;25451;51.960;6.250;2023-02-14T11:06:46;103251.34;;;13.10;74.01
39773;BME280;25451;51.960;6.250;2023-02-14T11:09:14;103252.22;;;13.17;73.95
39773;BME280;25451;51.960;6.250;2023-02-14T11:11:44;103243.97;;;13.24;73.40
39773;BME280;25451;51.960;6.250;2023-02-14T11:16:43;103239.78;;;13.35;73.20
39773;BME280;25451;51.960;6.250;2023-02-14T11:21:47;103231.09;;;13.51;73.53
39773;BME280;25451;51.960;6.250;2023-02-14T11:26:54;103233.09;;;13.63;73.19
39773;BME280;25451;51.960;6.250;2023-02-14T11:29:26;103224.16;;;13.68;73.23
39773;BME280;25451;51.960;6.250;2023-02-14T11:31:52;103228.22;;;13.72;73.02
39773;BME280;25451;51.960;6.250;2023-02-14T11:34:44;103228.25;;;13.78;72.89
39773;BME280;25451;51.960;6.250;2023-02-14T11:37:24;103227.41;;;13.78;72.77
39773;BME280;25451;51.960;6.250;2023-02-14T11:39:51;103217.97;;;13.72;72.73
39773;BME280;25451;51.960;6.250;2023-02-14T11:42:36;103216.47;;;13.70;72.70
39773;BME280;25451;51.960;6.250;2023-02-14T11:45:03;103208.81;;;13.72;72.71
39773;BME280;25451;51.960;6.250;2023-02-14T11:47:32;103200.69;;;13.77;73.00
39773;BME280;25451;51.960;6.250;2023-02-14T11:50:06;103204.78;;;13.87;72.86
39773;BME280;25451;51.960;6.250;2023-02-14T11:52:54;103205.47;;;13.96;72.77
39773;BME280;25451;51.960;6.250;2023-02-14T11:55:23;103210.41;;;14.00;72.67
39773;BME280;25451;51.960;6.250;2023-02-14T11:57:50;103207.41;;;14.08;72.71
39773;BME280;25451;51.960;6.250;2023-02-14T12:00:17;103201.44;;;14.11;72.52
39773;BME280;25451;51.960;6.250;2023-02-14T12:02:45;103195.22;;;14.09;72.44
39773;BME280;25451;51.960;6.250;2023-02-14T12:05:25;103194.38;;;14.09;71.93
39773;BME280;25451;51.960;6.250;2023-02-14T12:07:54;103191.16;;;14.05;72.02
39773;BME280;25451;51.960;6.250;2023-02-14T12:26:41;103150.53;;;13.78;70.57
39773;BME280;25451;51.960;6.250;2023-02-14T12:29:17;103150.94;;;13.75;70.46
39773;BME280;25451;51.960;6.250;2023-02-14T12:31:45;103144.97;;;13.72;70.29
39773;BME280;25451;51.960;6.250;2023-02-14T12:34:12;103135.09;;;13.63;69.90
39773;BME280;25451;51.960;6.250;2023-02-14T12:39:21;103129.72;;;13.55;69.71
39773;BME280;25451;51.960;6.250;2023-02-14T12:47:07;103129.06;;;13.46;69.39
39773;BME280;25451;51.960;6.250;2023-02-14T12:58:04;103109.78;;;13.25;68.75
39773;BME280;25451;51.960;6.250;2023-02-14T13:00:44;103120.63;;;13.20;68.89
39773;BME280;25451;51.960;6.250;2023-02-14T13:06:11;103104.38;;;13.10;68.78
39773;BME280;25451;51.960;6.250;2023-02-14T13:22:32;103097.19;;;12.88;68.34
39773;BME280;25451;51.960;6.250;2023-02-14T13:25:25;103090.34;;;12.84;68.38
39773;BME280;25451;51.960;6.250;2023-02-14T13:28:18;103081.56;;;12.81;68.05
39773;BME280;25451;51.960;6.250;2023-02-14T13:30:44;103072.38;;;12.74;67.97
39773;BME280;25451;51.960;6.250;2023-02-14T13:36:00;103068.75;;;12.73;68.19
39773;BME280;25451;51.960;6.250;2023-02-14T13:38:26;103072.75;;;12.71;67.94
39773;BME280;25451;51.960;6.250;2023-02-14T13:40:54;103057.44;;;12.68;67.69
39773;BME280;25451;51.960;6.250;2023-02-14T13:43:58;103055.91;;;12.66;67.65
39773;BME280;25451;51.960;6.250;2023-02-14T13:49:23;103048.63;;;12.58;67.61
39773;BME280;25451;51.960;6.250;2023-02-14T13:51:51;103049.69;;;12.57;67.54
39773;BME280;25451;51.960;6.250;2023-02-14T13:54:27;103047.13;;;12.56;67.72
39773;BME280;25451;51.960;6.250;2023-02-14T13:56:55;103044.94;;;12.51;67.45
39773;BME280;25451;51.960;6.250;2023-02-14T13:59:34;103037.91;;;12.48;67.29
39773;BME280;25451;51.960;6.250;2023-02-14T14:02:40;103046.41;;;12.47;67.21
39773;BME280;25451;51.960;6.250;2023-02-14T14:10:47;103039.53;;;12.36;67.64
39773;BME280;25451;51.960;6.250;2023-02-14T14:24:16;103024.78;;;12.29;67.34
39773;BME280;25451;51.960;6.250;2023-02-14T14:26:46;103024.13;;;12.27;67.37
39773;BME280;25451;51.960;6.250;2023-02-14T14:29:21;103026.03;;;12.27;67.03
39773;BME280;25451;51.960;6.250;2023-02-14T14:31:47;103017.47;;;12.22;67.41
39773;BME280;25451;51.960;6.250;2023-02-14T14:34:20;103033.03;;;12.23;67.32
39773;BME280;25451;51.960;6.250;2023-02-14T14:36:46;103016.16;;;12.18;67.17
39773;BME280;25451;51.960;6.250;2023-02-14T14:39:24;103016.66;;;12.21;66.93
39773;BME280;25451;51.960;6.250;2023-02-14T14:41:51;103014.06;;;12.20;66.97
39773;BME280;25451;51.960;6.250;2023-02-14T14:44:17;103017.91;;;12.19;67.29
39773;BME280;25451;51.960;6.250;2023-02-14T14:46:42;103007.88;;;12.18;67.26
39773;BME280;25451;51.960;6.250;2023-02-14T14:49:09;103007.22;;;12.16;67.18
39773;BME280;25451;51.960;6.250;2023-02-14T14:51:36;103001.44;;;12.11;67.29
39773;BME280;25451;51.960;6.250;2023-02-14T14:54:03;103008.50;;;12.13;67.23
39773;BME280;25451;51.960;6.250;2023-02-14T14:56:33;102999.53;;;12.11;67.16
39773;BME280;25451;51.960;6.250;2023-02-14T14:59:35;102999.94;;;12.08;66.86
39773;BME280;25451;51.960;6.250;2023-02-14T15:02:19;103001.19;;;12.06;66.89
39773;BME280;25451;51.960;6.250;2023-02-14T15:04:45;102999.69;;;12.03;67.00
39773;BME280;25451;51.960;6.250;2023-02-14T15:07:31;103004.53;;;12.01;66.83
39773;BME280;25451;51.960;6.250;2023-02-14T15:09:57;103005.41;;;12.02;67.03
39773;BME280;25451;51.960;6.250;2023-02-14T15:12:23;103001.97;;;12.00;67.22